createdAt,value
2022-08-16T00:03:26.330Z,22.08
2022-08-16T00:08:36.228Z,21.94
2022-08-16T00:13:42.489Z,22.02
2022-08-16T00:18:45.879Z,22.02
2022-08-16T00:23:50.395Z,22.14
2022-08-16T00:28:55.391Z,21.97
2022-08-16T00:33:58.441Z,21.93
2022-08-16T00:39:03.610Z,21.87
2022-08-16T00:44:11.136Z,21.69
2022-08-16T00:49:18.907Z,21.45
2022-08-16T00:54:25.717Z,21.49
2022-08-16T00:59:34.461Z,21.47
2022-08-16T01:04:38.282Z,21.63
2022-08-16T01:09:42.794Z,21.64
2022-08-16T01:14:53.326Z,21.57
2022-08-16T01:20:00.534Z,21.60
2022-08-16T01:25:09.038Z,21.65
2022-08-16T01:30:20.381Z,21.57
2022-08-16T01:35:29.765Z,21.57
2022-08-16T01:40:40.686Z,21.58
2022-08-16T01:45:44.853Z,21.45
2022-08-16T01:51:09.592Z,21.32
2022-08-16T01:56:23.273Z,21.23
2022-08-16T02:01:28.626Z,21.18
2022-08-16T02:06:34.650Z,20.96
2022-08-16T02:11:48.633Z,20.81
2022-08-16T02:16:58.573Z,20.81
2022-08-16T02:22:09.248Z,20.72
2022-08-16T02:27:30.993Z,20.73
2022-08-16T02:32:51.234Z,20.75
2022-08-16T02:38:01.683Z,20.63
2022-08-16T02:43:14.004Z,20.55
2022-08-16T02:48:29.849Z,20.58
2022-08-16T02:53:36.462Z,20.52
2022-08-16T02:58:41.589Z,20.59
2022-08-16T03:04:39.793Z,20.46
2022-08-16T03:09:13.796Z,20.52
2022-08-16T03:14:24.699Z,20.48
2022-08-16T03:19:45.773Z,20.50
2022-08-16T03:24:52.395Z,20.50
2022-08-16T03:29:56.803Z,20.39
2022-08-16T03:35:01.084Z,20.35
2022-08-16T03:40:05.904Z,20.34
2022-08-16T03:45:11.426Z,20.49
2022-08-16T03:50:25.579Z,20.51
2022-08-16T03:55:40.014Z,20.51
2022-08-16T04:00:59.307Z,20.47
2022-08-16T04:06:03.566Z,20.38
2022-08-16T04:11:06.845Z,20.46
2022-08-16T04:16:26.690Z,20.50
2022-08-16T04:21:45.713Z,20.46
2022-08-16T04:26:50.060Z,20.31
2022-08-16T04:31:56.601Z,20.59
2022-08-16T04:37:03.196Z,20.69
2022-08-16T04:42:12.119Z,20.84
2022-08-16T04:47:23.860Z,20.88
2022-08-16T04:52:35.024Z,20.98
2022-08-16T04:57:41.464Z,20.90
2022-08-16T05:02:56.201Z,20.93
2022-08-16T05:08:29.504Z,21.04
2022-08-16T05:13:41.092Z,21.25
2022-08-16T05:18:49.326Z,21.06
2022-08-16T05:23:58.777Z,21.30
2022-08-16T05:29:06.860Z,21.30
2022-08-16T05:34:21.300Z,21.12
2022-08-16T05:39:27.567Z,21.29
2022-08-16T05:44:30.579Z,21.52
2022-08-16T05:49:39.653Z,21.89
2022-08-16T05:54:47.928Z,21.98
2022-08-16T06:00:09.115Z,21.99
2022-08-16T06:05:17.351Z,21.78
2022-08-16T06:10:32.394Z,22.34
2022-08-16T06:15:41.503Z,22.62
2022-08-16T06:20:55.779Z,22.31
2022-08-16T06:26:00.727Z,22.33
2022-08-16T06:31:12.217Z,22.86
2022-08-16T06:36:20.963Z,22.56
2022-08-16T06:41:39.376Z,22.62
2022-08-16T06:46:50.642Z,23.27
2022-08-16T06:52:03.290Z,24.65
2022-08-16T06:57:16.834Z,25.64
2022-08-16T07:02:32.895Z,25.66
2022-08-16T07:07:40.902Z,26.63
2022-08-16T07:13:03.785Z,27.05
2022-08-16T07:18:11.851Z,27.17
2022-08-16T07:23:17.421Z,27.17
2022-08-16T07:28:26.282Z,26.50
2022-08-16T07:33:52.258Z,27.55
2022-08-16T07:38:56.517Z,28.62
2022-08-16T07:44:01.664Z,30.52
2022-08-16T07:49:11.462Z,33.52
2022-08-16T07:54:21.339Z,35.85
2022-08-16T07:59:45.592Z,35.74
2022-08-16T08:04:49.803Z,35.09
2022-08-16T08:09:54.961Z,34.31
2022-08-16T08:14:57.884Z,33.86
2022-08-16T08:20:01.030Z,33.44
2022-08-16T08:25:07.660Z,31.54
2022-08-16T08:30:51.373Z,28.03
2022-08-16T08:35:37.824Z,27.32
2022-08-16T08:40:44.864Z,28.63
2022-08-16T08:45:52.670Z,28.26
2022-08-16T08:50:57.751Z,28.77
2022-08-16T08:56:23.529Z,28.19
2022-08-16T09:01:31.985Z,28.44
2022-08-16T09:06:43.245Z,28.43
2022-08-16T09:12:00.279Z,28.13
2022-08-16T09:17:31.575Z,28.18
2022-08-16T09:22:36.187Z,28.43
2022-08-16T09:27:46.623Z,28.72
2022-08-16T09:33:01.145Z,28.92
2022-08-16T09:38:05.909Z,27.72
2022-08-16T09:43:37.733Z,28.08
2022-08-16T09:48:44.761Z,28.24
2022-08-16T09:53:55.397Z,28.41
2022-08-16T09:59:04.893Z,28.84
2022-08-16T10:04:28.233Z,28.59
2022-08-16T10:09:54.040Z,29.09
2022-08-16T10:14:57.275Z,28.73
2022-08-16T10:20:00.345Z,29.11
2022-08-16T10:25:03.250Z,29.22
2022-08-16T10:30:24.954Z,29.31
2022-08-16T10:35:32.979Z,29.53
2022-08-16T10:40:36.356Z,29.31
2022-08-16T10:45:42.158Z,30.17
2022-08-16T10:51:00.751Z,30.59
2022-08-16T10:56:44.324Z,31.18
2022-08-16T11:01:43.094Z,31.21
2022-08-16T11:07:07.758Z,30.04
2022-08-16T11:12:13.813Z,30.08
2022-08-16T11:17:19.131Z,30.29
2022-08-16T11:22:46.861Z,30.45
2022-08-16T11:27:46.136Z,29.69
2022-08-16T11:32:51.882Z,29.10
2022-08-16T11:38:06.194Z,29.24
2022-08-16T11:43:23.750Z,29.03
2022-08-16T11:48:33.409Z,28.96
2022-08-16T11:53:36.367Z,28.49
2022-08-16T11:58:40.281Z,28.22
2022-08-16T12:03:45.941Z,27.84
2022-08-16T12:08:49.390Z,28.20
2022-08-16T12:13:53.224Z,28.18
2022-08-16T12:18:58.078Z,28.80
2022-08-16T12:24:02.416Z,28.94
2022-08-16T12:29:06.404Z,29.04
2022-08-16T12:34:11.199Z,29.31
2022-08-16T12:39:22.719Z,29.08
2022-08-16T12:44:26.599Z,29.10
2022-08-16T12:49:41.983Z,29.47
2022-08-16T12:54:45.266Z,29.53
2022-08-16T12:59:57.862Z,29.58
2022-08-16T13:05:03.101Z,29.16
2022-08-16T13:10:21.054Z,28.44
2022-08-16T13:15:55.625Z,28.94
2022-08-16T13:21:01.610Z,29.67
2022-08-16T13:26:07.937Z,30.08
2022-08-16T13:31:11.251Z,30.11
2022-08-16T13:36:38.870Z,29.78
2022-08-16T13:41:42.613Z,29.32
2022-08-16T13:46:47.447Z,29.33
2022-08-16T13:51:51.767Z,30.01
2022-08-16T13:56:54.577Z,30.08
2022-08-16T14:01:59.943Z,29.62
2022-08-16T14:07:09.021Z,29.49
2022-08-16T14:12:21.769Z,29.83
2022-08-16T14:17:26.119Z,29.68
2022-08-16T14:22:35.883Z,29.71
2022-08-16T14:27:45.431Z,29.73
2022-08-16T14:32:51.030Z,29.77
2022-08-16T14:37:57.228Z,29.56
2022-08-16T14:43:05.643Z,29.83
2022-08-16T14:48:10.290Z,29.77
2022-08-16T14:53:17.236Z,29.54
2022-08-16T14:58:34.739Z,29.62
2022-08-16T15:03:44.785Z,29.71
2022-08-16T15:08:49.328Z,29.72
2022-08-16T15:13:54.923Z,29.46
2022-08-16T15:19:00.241Z,29.38
2022-08-16T15:24:05.507Z,28.88
2022-08-16T15:29:09.374Z,28.95
2022-08-16T15:34:19.167Z,29.45
2022-08-16T15:39:39.358Z,29.85
2022-08-16T15:44:52.911Z,29.76
2022-08-16T15:49:57.823Z,29.69
2022-08-16T15:55:07.426Z,29.40
2022-08-16T16:00:20.614Z,29.30
2022-08-16T16:05:23.664Z,29.33
2022-08-16T16:10:30.150Z,29.22
2022-08-16T16:15:35.868Z,29.27
2022-08-16T16:20:43.516Z,29.21
2022-08-16T16:25:48.263Z,29.04
2022-08-16T16:30:57.075Z,28.95
2022-08-16T16:36:03.919Z,29.12
2022-08-16T16:41:11.260Z,28.86
2022-08-16T16:46:40.360Z,28.64
2022-08-16T16:51:41.337Z,28.64
2022-08-16T16:56:51.376Z,28.46
2022-08-16T17:01:59.093Z,28.26
2022-08-16T17:07:10.492Z,28.00
2022-08-16T17:12:24.962Z,27.77
2022-08-16T17:17:29.682Z,27.61
2022-08-16T17:22:33.243Z,27.67
2022-08-16T17:27:39.791Z,27.65
2022-08-16T17:32:47.889Z,27.65
2022-08-16T17:37:52.529Z,27.65
2022-08-16T17:42:58.692Z,27.65
2022-08-16T17:48:01.733Z,27.68
2022-08-16T17:53:06.025Z,27.48
2022-08-16T17:58:22.556Z,27.51
2022-08-16T18:04:02.683Z,27.36
2022-08-16T18:09:00.302Z,27.19
2022-08-16T18:14:08.829Z,27.00
2022-08-16T18:19:11.741Z,26.98
2022-08-16T18:24:16.154Z,26.86
2022-08-16T18:29:21.211Z,26.63
2022-08-16T18:34:24.037Z,26.60
2022-08-16T18:39:27.080Z,26.60
2022-08-16T18:44:35.027Z,26.37
2022-08-16T18:49:38.185Z,26.36
2022-08-16T18:55:02.178Z,26.23
2022-08-16T19:00:09.839Z,26.07
2022-08-16T19:05:16.903Z,25.99
2022-08-16T19:10:20.799Z,25.81
2022-08-16T19:15:28.591Z,25.80
2022-08-16T19:20:31.633Z,25.51
2022-08-16T19:25:47.175Z,25.36
2022-08-16T19:30:52.731Z,25.36
2022-08-16T19:36:00.006Z,25.46
2022-08-16T19:41:03.126Z,25.42
2022-08-16T19:46:10.775Z,25.33
2022-08-16T19:51:16.761Z,25.22
2022-08-16T19:56:21.564Z,25.10
2022-08-16T20:01:27.793Z,24.92
2022-08-16T20:06:37.831Z,24.85
2022-08-16T20:11:44.518Z,24.84
2022-08-16T20:16:49.080Z,24.84
2022-08-16T20:21:52.049Z,24.78
2022-08-16T20:26:55.013Z,24.68
2022-08-16T20:31:59.616Z,24.63
2022-08-16T20:37:02.547Z,24.59
2022-08-16T20:42:05.936Z,24.57
2022-08-16T20:47:11.021Z,24.61
2022-08-16T20:52:17.252Z,24.43
2022-08-16T20:57:20.502Z,24.42
2022-08-16T21:02:27.472Z,24.39
2022-08-16T21:07:30.419Z,24.34
2022-08-16T21:12:34.835Z,24.24
2022-08-16T21:17:42.678Z,24.09
2022-08-16T21:22:54.951Z,24.00
2022-08-16T21:28:39.325Z,23.91
2022-08-16T21:33:23.069Z,23.88
2022-08-16T21:38:29.275Z,23.70
2022-08-16T21:43:33.756Z,23.64
2022-08-16T21:48:39.740Z,23.56
2022-08-16T21:53:44.557Z,23.49
2022-08-16T21:58:52.837Z,23.44
2022-08-16T22:04:09.632Z,23.37
2022-08-16T22:09:20.749Z,23.30
2022-08-16T22:14:23.637Z,23.28
2022-08-16T22:19:28.014Z,23.18
2022-08-16T22:24:30.920Z,23.16
2022-08-16T22:29:33.828Z,23.05
2022-08-16T22:34:38.098Z,23.03
2022-08-16T22:39:40.995Z,22.95
2022-08-16T22:44:46.348Z,22.99
2022-08-16T22:49:50.846Z,22.92
2022-08-16T22:54:53.710Z,22.85
2022-08-16T22:59:56.563Z,22.78
2022-08-16T23:05:00.821Z,22.63
2022-08-16T23:10:03.730Z,22.51
2022-08-16T23:15:07.232Z,22.56
2022-08-16T23:20:13.260Z,22.54
2022-08-16T23:25:20.222Z,22.50
2022-08-16T23:30:24.972Z,22.35
2022-08-16T23:35:45.282Z,22.30
2022-08-16T23:40:49.431Z,22.22
2022-08-16T23:45:56.213Z,22.17
2022-08-16T23:51:01.631Z,22.11
2022-08-16T23:56:06.902Z,22.01
